createdAt,value
2023-01-10T00:00:10.124Z,92188.88
2023-01-10T00:01:41.682Z,92186.38
2023-01-10T00:03:13.254Z,92197.69
2023-01-10T00:04:44.974Z,92191.84
2023-01-10T00:06:16.647Z,92184.00
2023-01-10T00:07:48.227Z,92193.09
2023-01-10T00:09:19.758Z,92178.47
2023-01-10T00:10:51.399Z,92197.19
2023-01-10T00:12:41.517Z,92203.03
2023-01-10T00:14:13.110Z,92196.09
2023-01-10T00:15:44.707Z,92184.00
2023-01-10T00:17:16.256Z,92196.28
2023-01-10T00:18:47.799Z,92197.06
2023-01-10T00:20:19.574Z,92188.41
2023-01-10T00:21:51.210Z,92188.88
2023-01-10T00:23:22.926Z,92198.81
2023-01-10T00:24:54.402Z,92187.94
2023-01-10T00:26:25.872Z,92182.59
2023-01-10T00:28:11.182Z,92177.69
2023-01-10T00:29:42.827Z,92156.47
2023-01-10T00:31:16.724Z,92161.50
2023-01-10T00:32:48.392Z,92149.72
2023-01-10T00:34:20.047Z,92144.97
2023-01-10T00:35:51.640Z,92145.44
2023-01-10T00:37:23.447Z,92141.69
2023-01-10T00:38:54.981Z,92141.69
2023-01-10T00:40:26.716Z,92141.38
2023-01-10T00:42:17.613Z,92128.78
2023-01-10T00:43:58.154Z,92126.59
2023-01-10T00:45:30.267Z,92118.69
2023-01-10T00:47:01.817Z,92114.31
2023-01-10T00:48:33.537Z,92117.13
2023-01-10T00:50:11.946Z,92099.97
2023-01-10T00:51:43.732Z,92076.97
2023-01-10T00:53:15.458Z,92071.91
2023-01-10T00:54:46.984Z,92065.16
2023-01-10T00:56:18.810Z,92060.13
2023-01-10T00:57:50.326Z,92059.81
2023-01-10T00:59:22.063Z,92062.50
2023-01-10T01:00:53.677Z,92077.28
2023-01-10T01:02:25.567Z,92089.56
2023-01-10T01:03:57.861Z,92072.28
2023-01-10T01:05:29.328Z,92076.22
2023-01-10T01:07:01.585Z,92081.25
2023-01-10T01:08:33.156Z,92081.72
2023-01-10T01:10:27.967Z,92094.50
2023-01-10T01:11:59.490Z,92093.53
2023-01-10T01:13:40.590Z,92095.75
2023-01-10T01:15:12.246Z,92103.28
2023-01-10T01:16:43.814Z,92099.03
2023-01-10T01:18:16.209Z,92091.00
2023-01-10T01:19:47.667Z,92088.50
2023-01-10T01:21:19.515Z,92079.22
2023-01-10T01:22:51.057Z,92077.63
2023-01-10T01:24:22.867Z,92071.50
2023-01-10T01:25:58.504Z,92071.00
2023-01-10T01:27:31.343Z,92072.41
2023-01-10T01:29:02.809Z,92067.53
2023-01-10T01:30:34.320Z,92062.16
2023-01-10T01:32:05.958Z,92066.72
2023-01-10T01:33:37.859Z,92074.59
2023-01-10T01:35:10.775Z,92074.94
2023-01-10T01:36:42.518Z,92079.81
2023-01-10T01:38:14.142Z,92098.13
2023-01-10T01:39:46.771Z,92095.91
2023-01-10T01:41:36.810Z,92094.00
2023-01-10T01:43:20.596Z,92097.19
2023-01-10T01:45:10.301Z,92083.47
2023-01-10T01:46:42.205Z,92083.00
2023-01-10T01:48:19.208Z,92084.09
2023-01-10T01:49:50.794Z,92070.88
2023-01-10T01:51:25.507Z,92077.31
2023-01-10T01:52:57.399Z,92086.31
2023-01-10T01:54:29.015Z,92076.06
2023-01-10T01:56:01.916Z,92078.56
2023-01-10T01:57:33.475Z,92074.34
2023-01-10T01:59:10.920Z,92064.41
2023-01-10T02:00:42.730Z,92060.59
2023-01-10T02:02:16.186Z,92056.22
2023-01-10T02:03:48.748Z,92036.84
2023-01-10T02:05:22.308Z,92038.88
2023-01-10T02:06:53.855Z,92045.63
2023-01-10T02:08:25.474Z,92029.75
2023-01-10T02:10:01.648Z,92023.28
2023-01-10T02:11:33.107Z,92014.31
2023-01-10T02:13:05.481Z,92008.28
2023-01-10T02:14:37.576Z,92024.69
2023-01-10T02:16:09.751Z,92024.34
2023-01-10T02:17:41.447Z,92029.09
2023-01-10T02:19:31.223Z,92018.69
2023-01-10T02:21:02.746Z,92026.41
2023-01-10T02:22:46.498Z,92018.56
2023-01-10T02:24:17.979Z,92026.56
2023-01-10T02:26:07.989Z,92020.41
2023-01-10T02:27:39.484Z,92016.63
2023-01-10T02:29:29.606Z,92021.03
2023-01-10T02:31:01.161Z,92026.03
2023-01-10T02:32:47.981Z,92018.03
2023-01-10T02:34:36.946Z,92018.69
2023-01-10T02:36:14.162Z,92021.03
2023-01-10T02:37:46.200Z,92016.78
2023-01-10T02:39:35.316Z,92018.84
2023-01-10T02:41:12.446Z,92017.91
2023-01-10T02:42:52.799Z,92017.41
2023-01-10T02:44:24.319Z,92011.13
2023-01-10T02:46:05.164Z,92007.06
2023-01-10T02:47:37.879Z,92003.28
2023-01-10T02:49:09.490Z,92004.53
2023-01-10T02:50:45.822Z,92005.78
2023-01-10T02:52:21.587Z,91997.94
2023-01-10T02:53:58.078Z,91993.53
2023-01-10T02:56:04.886Z,91986.75
2023-01-10T02:57:36.438Z,91980.28
2023-01-10T02:59:17.422Z,91969.28
2023-01-10T03:00:51.444Z,91977.00
2023-01-10T03:02:23.041Z,91970.84
2023-01-10T03:03:57.931Z,91974.63
2023-01-10T03:05:49.919Z,91972.56
2023-01-10T03:07:39.729Z,91961.72
2023-01-10T03:09:11.324Z,91972.56
2023-01-10T03:10:44.695Z,91990.06
2023-01-10T03:12:22.109Z,91990.69
2023-01-10T03:13:55.027Z,92003.91
2023-01-10T03:15:28.377Z,92003.91
2023-01-10T03:17:00.472Z,92010.03
2023-01-10T03:18:33.263Z,92010.34
2023-01-10T03:20:05.760Z,92012.25
2023-01-10T03:21:37.706Z,92009.25
2023-01-10T03:23:09.231Z,92030.66
2023-01-10T03:24:42.196Z,92016.97
2023-01-10T03:26:13.712Z,92019.81
2023-01-10T03:27:52.470Z,92029.44
2023-01-10T03:29:42.707Z,92023.28
2023-01-10T03:31:18.800Z,92024.22
2023-01-10T03:32:50.463Z,92013.50
2023-01-10T03:34:22.216Z,92022.81
2023-01-10T03:36:06.259Z,92019.34
2023-01-10T03:37:47.332Z,92015.56
2023-01-10T03:39:22.792Z,92014.47
2023-01-10T03:40:59.545Z,92001.41
2023-01-10T03:43:00.368Z,92004.38
2023-01-10T03:44:45.148Z,91998.56
2023-01-10T03:46:25.345Z,91989.41
2023-01-10T03:47:56.953Z,91988.28
2023-01-10T03:49:28.462Z,91988.28
2023-01-10T03:51:00.003Z,91971.94
2023-01-10T03:52:32.266Z,91960.13
2023-01-10T03:54:03.884Z,91952.25
2023-01-10T03:55:35.476Z,91949.72
2023-01-10T03:57:08.016Z,91936.66
2023-01-10T03:58:39.479Z,91911.47
2023-01-10T04:00:11.384Z,91895.44
2023-01-10T04:01:43.018Z,91886.13
2023-01-10T04:03:14.744Z,91871.22
2023-01-10T04:04:46.281Z,91868.06
2023-01-10T04:06:18.131Z,91852.16
2023-01-10T04:07:49.715Z,91853.88
2023-01-10T04:09:22.215Z,91866.00
2023-01-10T04:10:53.779Z,91883.63
2023-01-10T04:12:25.320Z,91911.66
2023-01-10T04:13:56.786Z,91928.66
2023-01-10T04:15:28.683Z,91952.41
2023-01-10T04:17:00.287Z,91960.13
2023-01-10T04:18:31.769Z,91985.59
2023-01-10T04:20:03.444Z,91998.97
2023-01-10T04:21:35.037Z,92001.75
2023-01-10T04:23:06.577Z,91997.34
2023-01-10T04:24:38.149Z,92003.00
2023-01-10T04:26:09.722Z,91990.56
2023-01-10T04:27:41.257Z,91995.13
2023-01-10T04:29:12.850Z,91976.09
2023-01-10T04:30:44.346Z,91961.81
2023-01-10T04:32:16.074Z,91953.63
2023-01-10T04:33:47.587Z,91967.78
2023-01-10T04:35:19.162Z,91967.78
2023-01-10T04:36:50.832Z,91981.16
2023-01-10T04:38:22.536Z,91992.34
2023-01-10T04:39:53.985Z,91990.44
2023-01-10T04:41:25.515Z,91989.84
2023-01-10T04:42:57.080Z,91982.13
2023-01-10T04:44:28.655Z,91986.81
2023-01-10T04:46:00.152Z,91976.75
2023-01-10T04:47:31.734Z,91970.94
2023-01-10T04:49:03.297Z,91949.97
2023-01-10T04:50:35.026Z,91949.81
2023-01-10T04:52:06.538Z,91947.59
2023-01-10T04:53:38.020Z,91949.47
2023-01-10T04:55:10.161Z,91941.94
2023-01-10T04:56:41.675Z,91944.13
2023-01-10T04:58:13.748Z,91938.16
2023-01-10T04:59:45.335Z,91934.69
2023-01-10T05:01:18.088Z,91933.13
2023-01-10T05:02:49.804Z,91938.94
2023-01-10T05:04:21.470Z,91944.56
2023-01-10T05:05:53.112Z,91938.25
2023-01-10T05:07:24.697Z,91943.56
2023-01-10T05:08:56.509Z,91941.66
2023-01-10T05:10:28.186Z,91945.56
2023-01-10T05:11:59.685Z,91945.22
2023-01-10T05:13:31.115Z,91946.44
2023-01-10T05:15:02.599Z,91939.19
2023-01-10T05:16:34.245Z,91939.94
2023-01-10T05:18:05.843Z,91936.13
2023-01-10T05:19:37.572Z,91942.88
2023-01-10T05:21:10.112Z,91949.09
2023-01-10T05:22:41.560Z,91944.06
2023-01-10T05:24:13.559Z,91946.75
2023-01-10T05:25:45.154Z,91946.88
2023-01-10T05:27:16.643Z,91951.72
2023-01-10T05:28:48.286Z,91944.94
2023-01-10T05:30:20.137Z,91937.56
2023-01-10T05:31:51.981Z,91949.31
2023-01-10T05:33:23.675Z,91950.25
2023-01-10T05:34:55.143Z,91951.84
2023-01-10T05:36:26.710Z,91954.84
2023-01-10T05:37:58.263Z,91962.53
2023-01-10T05:39:29.828Z,91950.25
2023-01-10T05:41:01.378Z,91959.84
2023-01-10T05:42:32.943Z,91959.84
2023-01-10T05:44:04.562Z,91961.44
2023-01-10T05:45:36.397Z,91961.31
2023-01-10T05:47:07.916Z,91959.94
2023-01-10T05:48:40.890Z,91974.84
2023-01-10T05:50:12.361Z,91965.72
2023-01-10T05:51:44.072Z,91971.69
2023-01-10T05:53:15.695Z,91972.41
2023-01-10T05:54:47.178Z,91975.81
2023-01-10T05:56:18.793Z,91976.25
2023-01-10T05:57:50.583Z,91972.31
2023-01-10T05:59:29.283Z,91975.28
2023-01-10T06:01:01.109Z,91974.63
2023-01-10T06:02:33.089Z,91976.78
2023-01-10T06:04:04.890Z,91973.16
2023-01-10T06:05:36.403Z,91981.56
2023-01-10T06:07:07.868Z,91971.81
2023-01-10T06:08:40.949Z,91975.97
2023-01-10T06:10:12.583Z,91973.25
2023-01-10T06:11:44.228Z,91980.56
2023-01-10T06:13:16.353Z,91976.44
2023-01-10T06:14:47.948Z,91984.03
2023-01-10T06:16:19.518Z,91976.94
2023-01-10T06:17:51.322Z,91972.00
2023-01-10T06:19:23.029Z,91978.56
2023-01-10T06:20:54.770Z,91984.97
2023-01-10T06:22:26.567Z,91975.69
2023-01-10T06:23:58.357Z,91980.34
2023-01-10T06:25:29.967Z,91976.38
2023-01-10T06:27:01.681Z,91968.09
2023-01-10T06:28:33.407Z,91977.19
2023-01-10T06:30:05.431Z,91976.97
2023-01-10T06:31:37.585Z,91966.63
2023-01-10T06:33:09.509Z,91966.03
2023-01-10T06:34:41.771Z,91967.41
2023-01-10T06:36:13.976Z,91970.06
2023-01-10T06:37:45.766Z,91969.06
2023-01-10T06:39:18.004Z,91962.78
2023-01-10T06:40:49.839Z,91967.81
2023-01-10T06:42:21.678Z,91969.41
2023-01-10T06:43:53.307Z,91964.34
2023-01-10T06:45:25.066Z,91966.53
2023-01-10T06:46:56.669Z,91954.88
2023-01-10T06:48:28.426Z,91960.50
2023-01-10T06:50:00.057Z,91963.16
2023-01-10T06:51:31.852Z,91958.16
2023-01-10T06:53:04.502Z,91948.28
2023-01-10T06:54:36.395Z,91951.53
2023-01-10T06:56:09.792Z,91946.22
2023-01-10T06:57:41.932Z,91939.78
2023-01-10T06:59:13.758Z,91939.78
2023-01-10T07:00:45.595Z,91945.13
2023-01-10T07:02:17.813Z,91940.97
2023-01-10T07:03:50.075Z,91940.78
2023-01-10T07:05:21.988Z,91931.31
2023-01-10T07:06:53.955Z,91935.75
2023-01-10T07:08:25.487Z,91927.84
2023-01-10T07:09:57.279Z,91924.97
2023-01-10T07:11:28.991Z,91913.75
2023-01-10T07:13:00.650Z,91909.22
2023-01-10T07:14:32.555Z,91911.59
2023-01-10T07:16:10.906Z,91912.66
2023-01-10T07:17:43.174Z,91915.31
2023-01-10T07:19:16.209Z,91906.25
2023-01-10T07:20:47.875Z,91900.63
2023-01-10T07:22:19.398Z,91902.50
2023-01-10T07:23:51.015Z,91896.94
2023-01-10T07:25:23.105Z,91906.56
2023-01-10T07:26:55.664Z,91909.91
2023-01-10T07:28:52.738Z,91907.47
2023-01-10T07:30:38.953Z,91899.75
2023-01-10T07:32:16.671Z,91912.00
2023-01-10T07:34:06.329Z,91923.13
2023-01-10T07:37:43.905Z,91913.75
2023-01-10T07:39:21.948Z,91917.50
2023-01-10T07:41:30.818Z,91914.03
2023-01-10T07:43:11.063Z,91909.72
2023-01-10T07:45:17.368Z,91909.50
2023-01-10T07:46:51.243Z,91904.38
2023-01-10T07:48:30.943Z,91908.91
2023-01-10T07:50:02.542Z,91910.50
2023-01-10T07:58:37.095Z,91939.25
2023-01-10T08:00:35.782Z,91943.09
2023-01-10T08:02:17.995Z,91945.56
2023-01-10T08:05:51.567Z,91944.25
2023-01-10T08:07:23.132Z,91948.66
2023-01-10T08:08:54.694Z,91946.19
2023-01-10T08:10:26.681Z,91954.59
2023-01-10T08:11:58.274Z,91947.34
2023-01-10T08:13:30.296Z,91947.66
2023-01-10T08:15:01.863Z,91942.72
2023-01-10T08:24:54.359Z,91913.84
2023-01-10T08:26:43.218Z,91915.19
2023-01-10T08:28:36.156Z,91894.63
2023-01-10T08:30:11.164Z,91906.69
2023-01-10T08:31:45.836Z,91903.53
2023-01-10T08:33:24.377Z,91905.41
2023-01-10T08:34:55.958Z,91902.75
2023-01-10T08:36:30.368Z,91900.88
2023-01-10T08:38:12.177Z,91902.44
2023-01-10T08:39:51.802Z,91900.06
2023-01-10T08:41:26.210Z,91903.81
2023-01-10T08:43:04.164Z,91902.25
2023-01-10T08:45:05.520Z,91903.66
2023-01-10T08:46:37.709Z,91903.66
2023-01-10T08:48:10.254Z,91895.97
2023-01-10T08:49:41.812Z,91886.50
2023-01-10T08:51:13.670Z,91899.03
2023-01-10T08:52:45.366Z,91895.19
2023-01-10T08:54:17.220Z,91909.31
2023-01-10T08:55:49.328Z,91913.84
2023-01-10T08:57:21.276Z,91912.63
2023-01-10T08:58:53.575Z,91908.56
2023-01-10T09:00:25.656Z,91914.25
2023-01-10T09:01:58.714Z,91917.41
2023-01-10T09:03:30.602Z,91914.44
2023-01-10T09:05:02.911Z,91919.47
2023-01-10T09:06:34.944Z,91925.13
2023-01-10T09:08:07.192Z,91919.47
2023-01-10T09:09:38.865Z,91915.84
2023-01-10T09:11:10.457Z,91910.63
2023-01-10T09:12:57.255Z,91906.38
2023-01-10T09:14:32.306Z,91913.91
2023-01-10T09:16:06.667Z,91915.47
2023-01-10T09:17:38.405Z,91902.94
2023-01-10T09:19:09.955Z,91900.47
2023-01-10T09:20:42.222Z,91904.38
2023-01-10T09:22:19.502Z,91898.75
2023-01-10T09:24:06.707Z,91901.09
2023-01-10T09:25:38.486Z,91898.44
2023-01-10T09:27:11.235Z,91903.97
2023-01-10T09:28:43.462Z,91901.44
2023-01-10T09:30:15.471Z,91898.78
2023-01-10T09:31:47.972Z,91899.91
2023-01-10T09:33:19.593Z,91902.25
2023-01-10T09:34:51.834Z,91900.69
2023-01-10T09:36:23.891Z,91902.72
2023-01-10T09:37:56.035Z,91903.22
2023-01-10T09:39:29.513Z,91895.09
2023-01-10T09:41:01.595Z,91897.13
2023-01-10T09:42:33.116Z,91898.59
2023-01-10T09:44:24.898Z,91890.00
2023-01-10T09:45:57.262Z,91881.22
2023-01-10T09:47:31.993Z,91875.59
2023-01-10T09:49:20.908Z,91876.06
2023-01-10T09:51:11.090Z,91865.69
2023-01-10T09:52:44.617Z,91871.66
2023-01-10T09:54:18.206Z,91866.13
2023-01-10T09:55:52.541Z,91877.59
2023-01-10T09:57:24.219Z,91869.16
2023-01-10T09:58:56.449Z,91864.47
2023-01-10T10:00:31.926Z,91859.16
2023-01-10T10:02:21.875Z,91865.63
2023-01-10T10:03:56.612Z,91866.28
2023-01-10T10:05:29.143Z,91863.91
2023-01-10T10:07:00.769Z,91865.97
2023-01-10T10:08:32.354Z,91859.22
2023-01-10T10:10:07.271Z,91866.94
2023-01-10T10:11:57.315Z,91860.50
2023-01-10T10:13:36.996Z,91856.41
2023-01-10T10:15:17.347Z,91856.09
2023-01-10T10:16:48.963Z,91859.22
2023-01-10T10:18:38.780Z,91858.25
2023-01-10T10:20:13.763Z,91858.09
2023-01-10T10:21:48.053Z,91861.38
2023-01-10T10:23:19.809Z,91860.91
2023-01-10T10:25:00.900Z,91853.97
2023-01-10T10:26:36.088Z,91849.25
2023-01-10T10:28:32.061Z,91844.84
2023-01-10T10:30:15.942Z,91845.16
2023-01-10T10:31:53.370Z,91847.34
2023-01-10T10:33:37.341Z,91844.19
2023-01-10T10:35:28.105Z,91831.31
2023-01-10T10:37:01.643Z,91834.91
2023-01-10T10:38:35.200Z,91834.75
2023-01-10T10:40:08.053Z,91844.16
2023-01-10T10:41:40.803Z,91828.31
2023-01-10T10:43:23.197Z,91825.00
2023-01-10T10:44:55.629Z,91823.13
2023-01-10T10:46:27.151Z,91820.94
2023-01-10T10:48:04.280Z,91824.28
2023-01-10T10:49:39.496Z,91827.75
2023-01-10T10:51:29.556Z,91829.31
2023-01-10T10:53:01.801Z,91830.88
2023-01-10T10:54:33.309Z,91832.44
2023-01-10T10:56:06.760Z,91839.53
2023-01-10T10:57:38.726Z,91841.59
2023-01-10T10:59:12.257Z,91843.19
2023-01-10T11:00:43.929Z,91842.22
2023-01-10T11:02:24.640Z,91836.59
2023-01-10T11:03:57.376Z,91830.63
2023-01-10T11:05:46.856Z,91836.91
2023-01-10T11:07:18.413Z,91830.34
2023-01-10T11:08:50.626Z,91821.84
2023-01-10T11:10:39.419Z,91824.22
2023-01-10T11:12:13.141Z,91819.66
2023-01-10T11:13:49.424Z,91818.44
2023-01-10T11:15:43.955Z,91816.38
2023-01-10T11:17:26.171Z,91810.44
2023-01-10T11:19:17.677Z,91798.84
2023-01-10T11:20:58.960Z,91802.91
2023-01-10T11:22:32.307Z,91798.84
2023-01-10T11:24:04.181Z,91808.25
2023-01-10T11:25:35.870Z,91796.94
2023-01-10T11:27:16.438Z,91796.59
2023-01-10T11:28:48.000Z,91800.41
2023-01-10T11:30:26.222Z,91798.34
2023-01-10T11:31:57.919Z,91798.38
2023-01-10T11:33:35.565Z,91799.13
2023-01-10T11:35:08.198Z,91807.63
2023-01-10T11:36:54.759Z,91797.72
2023-01-10T11:38:30.291Z,91801.81
2023-01-10T11:40:13.865Z,91797.91
2023-01-10T11:41:45.407Z,91804.03
2023-01-10T11:43:25.804Z,91792.38
2023-01-10T11:45:20.386Z,91798.53
2023-01-10T11:46:53.554Z,91799.63
2023-01-10T11:48:48.212Z,91800.88
2023-01-10T11:50:18.404Z,91801.97
2023-01-10T11:51:50.655Z,91804.34
2023-01-10T11:53:49.084Z,91794.59
2023-01-10T11:55:24.722Z,91794.88
2023-01-10T11:56:56.271Z,91787.81
2023-01-10T11:58:31.060Z,91784.47
2023-01-10T12:00:04.113Z,91780.56
2023-01-10T12:01:40.498Z,91770.66
2023-01-10T12:03:18.270Z,91771.13
2023-01-10T12:04:50.642Z,91769.28
2023-01-10T12:06:22.407Z,91779.78
2023-01-10T12:08:14.238Z,91781.53
2023-01-10T12:09:54.460Z,91786.25
2023-01-10T12:11:32.748Z,91783.56
2023-01-10T12:13:14.060Z,91783.75
2023-01-10T12:14:46.182Z,91790.19
2023-01-10T12:16:30.778Z,91781.22
2023-01-10T12:18:03.050Z,91776.03
2023-01-10T12:19:34.721Z,91767.53
2023-01-10T12:21:06.427Z,91770.53
2023-01-10T12:22:39.695Z,91765.97
2023-01-10T12:24:13.193Z,91761.72
2023-01-10T12:25:44.846Z,91769.72
2023-01-10T12:27:17.087Z,91770.84
2023-01-10T12:28:52.619Z,91764.38
2023-01-10T12:30:41.382Z,91768.81
2023-01-10T12:32:23.421Z,91764.38
2023-01-10T12:33:56.133Z,91767.53
2023-01-10T12:35:30.651Z,91766.88
2023-01-10T12:37:05.513Z,91770.31
2023-01-10T12:38:57.779Z,91777.88
2023-01-10T12:40:29.449Z,91780.53
2023-01-10T12:42:28.506Z,91786.03
2023-01-10T12:44:12.397Z,91790.28
2023-01-10T12:46:12.710Z,91792.34
2023-01-10T12:48:02.561Z,91796.91
2023-01-10T12:49:57.451Z,91793.13
2023-01-10T12:51:28.925Z,91788.88
2023-01-10T12:53:07.526Z,91793.13
2023-01-10T12:54:39.167Z,91786.66
2023-01-10T12:56:13.108Z,91778.16
2023-01-10T12:57:46.709Z,91787.47
2023-01-10T12:59:36.075Z,91790.13
2023-01-10T13:01:08.761Z,91798.94
2023-01-10T13:02:41.531Z,91801.78
2023-01-10T13:04:13.998Z,91798.00
2023-01-10T13:05:48.870Z,91798.00
2023-01-10T13:07:20.433Z,91796.75
2023-01-10T13:08:52.123Z,91809.19
2023-01-10T13:10:23.901Z,91809.66
2023-01-10T13:12:07.671Z,91809.34
2023-01-10T13:13:42.828Z,91809.81
2023-01-10T13:15:17.587Z,91803.38
2023-01-10T13:16:50.567Z,91813.00
2023-01-10T13:18:26.151Z,91811.72
2023-01-10T13:20:16.661Z,91814.38
2023-01-10T13:21:48.386Z,91819.66
2023-01-10T13:23:20.074Z,91824.56
2023-01-10T13:24:58.760Z,91821.91
2023-01-10T13:26:48.952Z,91826.44
2023-01-10T13:28:21.108Z,91813.22
2023-01-10T13:29:52.812Z,91820.94
2023-01-10T13:31:29.356Z,91823.00
2023-01-10T13:33:02.251Z,91814.81
2023-01-10T13:34:34.361Z,91820.16
2023-01-10T13:36:29.560Z,91818.28
2023-01-10T13:38:01.320Z,91819.06
2023-01-10T13:39:33.027Z,91822.50
2023-01-10T13:41:05.730Z,91832.41
2023-01-10T13:42:55.969Z,91839.94
2023-01-10T13:44:27.969Z,91837.38
2023-01-10T13:46:18.012Z,91839.56
2023-01-10T13:47:54.879Z,91833.91
2023-01-10T13:49:27.573Z,91838.94
2023-01-10T13:51:05.999Z,91837.00
2023-01-10T13:52:37.903Z,91830.72
2023-01-10T13:54:18.437Z,91830.06
2023-01-10T13:55:54.054Z,91834.88
2023-01-10T13:57:48.805Z,91836.72
2023-01-10T13:59:42.202Z,91843.31
2023-01-10T14:02:01.183Z,91850.16
2023-01-10T14:03:41.822Z,91851.50
2023-01-10T14:05:21.196Z,91850.22
2023-01-10T14:07:02.619Z,91848.19
2023-01-10T14:08:34.220Z,91853.34
2023-01-10T14:10:06.635Z,91852.34
2023-01-10T14:11:44.148Z,91846.88
2023-01-10T14:13:17.681Z,91853.28
2023-01-10T14:14:50.656Z,91856.75
2023-01-10T14:16:33.300Z,91863.03
2023-01-10T14:18:07.856Z,91867.56
2023-01-10T14:19:40.733Z,91867.91
2023-01-10T14:21:27.595Z,91864.56
2023-01-10T14:23:02.762Z,91862.00
2023-01-10T14:24:38.072Z,91860.75
2023-01-10T14:26:28.261Z,91858.88
2023-01-10T14:28:00.042Z,91867.66
2023-01-10T14:29:32.380Z,91859.66
2023-01-10T14:31:05.524Z,91860.13
2023-01-10T14:32:40.938Z,91860.63
2023-01-10T14:34:13.737Z,91869.09
2023-01-10T14:35:46.363Z,91868.19
2023-01-10T14:37:44.421Z,91865.03
2023-01-10T14:39:16.384Z,91871.34
2023-01-10T14:40:48.752Z,91870.72
2023-01-10T14:42:20.281Z,91880.31
2023-01-10T14:43:55.823Z,91891.16
2023-01-10T14:45:48.505Z,91900.47
2023-01-10T14:47:33.705Z,91904.22
2023-01-10T14:49:18.580Z,91910.94
2023-01-10T14:50:50.291Z,91903.72
2023-01-10T14:52:22.587Z,91905.41
2023-01-10T14:54:03.734Z,91893.47
2023-01-10T14:55:35.252Z,91898.34
2023-01-10T14:57:15.377Z,91898.34
2023-01-10T14:58:46.844Z,91901.00
2023-01-10T15:00:20.286Z,91899.72
2023-01-10T15:01:52.466Z,91899.53
2023-01-10T15:03:24.754Z,91901.91
2023-01-10T15:04:57.350Z,91902.50
2023-01-10T15:06:29.017Z,91909.69
2023-01-10T15:08:17.449Z,91913.66
2023-01-10T15:09:49.624Z,91909.41
2023-01-10T15:11:21.160Z,91902.00
2023-01-10T15:12:53.294Z,91910.78
2023-01-10T15:14:26.534Z,91902.00
2023-01-10T15:15:58.119Z,91907.34
2023-01-10T15:17:29.718Z,91899.34
2023-01-10T15:19:02.227Z,91902.31
2023-01-10T15:20:33.733Z,91898.38
2023-01-10T15:22:16.361Z,91898.78
2023-01-10T15:23:47.953Z,91904.53
2023-01-10T15:25:28.334Z,91903.75
2023-01-10T15:27:00.573Z,91905.81
2023-01-10T15:28:32.280Z,91910.97
2023-01-10T15:30:07.638Z,91905.56
2023-01-10T15:31:39.562Z,91910.69
2023-01-10T15:33:14.898Z,91910.53
2023-01-10T15:34:48.913Z,91911.78
2023-01-10T15:36:20.470Z,91910.22
2023-01-10T15:37:52.684Z,91910.53
2023-01-10T15:39:25.687Z,91913.66
2023-01-10T15:40:58.403Z,91919.00
2023-01-10T15:42:30.065Z,91929.94
2023-01-10T15:44:21.395Z,91928.88
2023-01-10T15:45:54.003Z,91931.66
2023-01-10T15:47:34.541Z,91934.31
2023-01-10T15:49:20.276Z,91932.44
2023-01-10T15:51:14.969Z,91937.78
2023-01-10T15:52:50.838Z,91937.09
2023-01-10T15:54:22.340Z,91942.13
2023-01-10T15:55:54.565Z,91943.69
2023-01-10T15:57:30.003Z,91942.63
2023-01-10T15:59:02.915Z,91941.53
2023-01-10T16:00:34.883Z,91946.94
2023-01-10T16:02:09.043Z,91952.56
2023-01-10T16:03:51.927Z,91958.63
2023-01-10T16:05:23.453Z,91950.25
2023-01-10T16:06:55.650Z,91950.44
2023-01-10T16:08:28.523Z,91960.41
2023-01-10T16:10:04.341Z,91958.31
2023-01-10T16:12:00.415Z,91961.31
2023-01-10T16:13:33.371Z,91963.78
2023-01-10T16:15:11.017Z,91971.75
2023-01-10T16:16:42.577Z,91979.53
2023-01-10T16:18:14.097Z,91978.75
2023-01-10T16:19:45.897Z,91973.72
2023-01-10T16:21:17.681Z,91981.41
2023-01-10T16:22:49.793Z,91974.22
2023-01-10T16:24:22.603Z,91984.78
2023-01-10T16:25:55.135Z,91978.88
2023-01-10T16:27:26.790Z,91986.53
2023-01-10T16:28:58.380Z,91992.94
2023-01-10T16:30:30.753Z,91992.94
2023-01-10T16:32:02.336Z,91998.00
2023-01-10T16:33:33.919Z,91998.00
2023-01-10T16:35:06.425Z,91999.06
2023-01-10T16:36:38.347Z,92003.94
2023-01-10T16:38:09.977Z,92003.94
2023-01-10T16:39:41.773Z,92010.91
2023-01-10T16:41:32.173Z,92012.00
2023-01-10T16:43:19.183Z,92012.97
2023-01-10T16:44:50.763Z,92016.59
2023-01-10T16:46:22.425Z,92010.25
2023-01-10T16:47:54.019Z,92009.75
2023-01-10T16:49:25.694Z,92011.91
2023-01-10T16:51:14.060Z,92024.16
2023-01-10T16:52:45.648Z,92027.59
2023-01-10T16:54:19.708Z,92026.00
2023-01-10T16:55:51.893Z,92037.47
2023-01-10T16:57:24.767Z,92038.53
2023-01-10T16:58:56.486Z,92041.50
2023-01-10T17:00:27.988Z,92041.00
2023-01-10T17:01:59.734Z,92040.22
2023-01-10T17:03:32.385Z,92043.97
2023-01-10T17:05:04.316Z,92041.88
2023-01-10T17:06:36.232Z,92056.25
2023-01-10T17:08:09.819Z,92055.47
2023-01-10T17:09:41.512Z,92055.28
2023-01-10T17:11:32.783Z,92058.22
2023-01-10T17:13:04.685Z,92063.06
2023-01-10T17:14:36.532Z,92059.09
2023-01-10T17:16:08.311Z,92059.38
2023-01-10T17:17:44.459Z,92063.63
2023-01-10T17:19:16.071Z,92070.81
2023-01-10T17:20:47.789Z,92073.28
2023-01-10T17:22:19.515Z,92072.19
2023-01-10T17:23:51.225Z,92079.09
2023-01-10T17:25:22.976Z,92075.63
2023-01-10T17:26:54.805Z,92081.19
2023-01-10T17:28:26.406Z,92077.44
2023-01-10T17:29:58.162Z,92092.09
2023-01-10T17:31:30.259Z,92083.03
2023-01-10T17:33:01.869Z,92081.97
2023-01-10T17:34:37.443Z,92092.63
2023-01-10T17:36:09.968Z,92086.72
2023-01-10T17:37:42.778Z,92096.56
2023-01-10T17:39:14.316Z,92098.72
2023-01-10T17:40:46.285Z,92098.78
2023-01-10T17:42:18.966Z,92102.34
2023-01-10T17:43:50.632Z,92101.53
2023-01-10T17:45:22.358Z,92100.03
2023-01-10T17:46:57.095Z,92097.16
2023-01-10T17:48:28.770Z,92099.31
2023-01-10T17:50:00.411Z,92104.69
2023-01-10T17:51:32.161Z,92110.03
2023-01-10T17:53:03.760Z,92114.25
2023-01-10T17:54:36.444Z,92112.50
2023-01-10T17:56:08.656Z,92118.66
2023-01-10T17:57:40.282Z,92121.69
2023-01-10T17:59:11.931Z,92119.06
2023-01-10T18:00:43.769Z,92128.13
2023-01-10T18:02:16.846Z,92129.50
2023-01-10T18:03:50.525Z,92132.75
2023-01-10T18:05:23.807Z,92133.03
2023-01-10T18:06:55.725Z,92135.97
2023-01-10T18:08:27.393Z,92133.06
2023-01-10T18:10:00.845Z,92138.09
2023-01-10T18:11:34.010Z,92137.81
2023-01-10T18:13:06.175Z,92141.28
2023-01-10T18:14:38.165Z,92131.22
2023-01-10T18:16:10.078Z,92140.56
2023-01-10T18:17:47.168Z,92140.84
2023-01-10T18:19:19.027Z,92142.19
2023-01-10T18:20:55.159Z,92142.25
2023-01-10T18:22:46.639Z,92147.38
2023-01-10T18:24:18.822Z,92157.47
2023-01-10T18:26:03.590Z,92151.66
2023-01-10T18:27:36.344Z,92155.16
2023-01-10T18:29:08.555Z,92157.81
2023-01-10T18:30:40.618Z,92162.31
2023-01-10T18:32:12.383Z,92158.41
2023-01-10T18:33:44.954Z,92163.19
2023-01-10T18:35:16.918Z,92161.09
2023-01-10T18:36:48.905Z,92158.72
2023-01-10T18:38:22.259Z,92164.25
2023-01-10T18:39:54.232Z,92165.56
2023-01-10T18:41:26.521Z,92166.84
2023-01-10T18:43:00.003Z,92164.72
2023-01-10T18:44:31.725Z,92170.03
2023-01-10T18:46:05.360Z,92174.81
2023-01-10T18:47:37.055Z,92168.75
2023-01-10T18:49:11.612Z,92168.22
2023-01-10T18:50:47.068Z,92166.38
2023-01-10T18:52:22.871Z,92169.59
2023-01-10T18:53:55.462Z,92164.53
2023-01-10T18:55:29.028Z,92167.19
2023-01-10T18:57:02.166Z,92169.59
2023-01-10T18:58:34.937Z,92171.16